createdAt,value
2023-01-23T00:02:08.011Z,2.96
2023-01-23T00:04:34.597Z,2.94
2023-01-23T00:07:03.466Z,2.95
2023-01-23T00:09:30.221Z,3.00
2023-01-23T00:11:56.745Z,3.02
2023-01-23T00:14:23.394Z,3.03
2023-01-23T00:16:49.937Z,3.02
2023-01-23T00:19:16.548Z,3.01
2023-01-23T00:21:44.512Z,2.99
2023-01-23T00:24:12.384Z,3.01
2023-01-23T00:26:38.981Z,3.00
2023-01-23T00:29:05.544Z,2.99
2023-01-23T00:31:35.753Z,2.98
2023-01-23T00:34:05.326Z,2.97
2023-01-23T00:36:35.514Z,2.95
2023-01-23T00:39:04.599Z,2.96
2023-01-23T00:41:31.164Z,2.96
2023-01-23T00:43:57.763Z,2.95
2023-01-23T00:46:24.452Z,2.97
2023-01-23T00:48:51.615Z,2.97
2023-01-23T00:51:18.330Z,2.97
2023-01-23T00:53:45.074Z,3.00
2023-01-23T00:56:11.898Z,3.02
2023-01-23T00:58:38.552Z,3.04
2023-01-23T01:01:05.180Z,3.03
2023-01-23T01:03:31.742Z,3.00
2023-01-23T01:05:58.519Z,3.01
2023-01-23T01:08:25.104Z,3.02
2023-01-23T01:10:51.737Z,3.01
2023-01-23T01:13:21.492Z,3.00
2023-01-23T01:15:49.717Z,3.03
2023-01-23T01:18:17.114Z,3.02
2023-01-23T01:20:44.898Z,3.05
2023-01-23T01:23:12.389Z,3.06
2023-01-23T01:25:39.448Z,3.05
2023-01-23T01:28:06.538Z,3.02
2023-01-23T01:30:33.284Z,2.99
2023-01-23T01:32:59.839Z,2.97
2023-01-23T01:35:26.439Z,3.00
2023-01-23T01:37:52.995Z,3.00
2023-01-23T01:40:27.201Z,3.00
2023-01-23T01:42:59.904Z,3.00
2023-01-23T01:46:04.123Z,2.98
2023-01-23T01:48:51.084Z,3.00
2023-01-23T01:51:30.123Z,2.97
2023-01-23T01:54:06.643Z,3.00
2023-01-23T01:56:39.844Z,3.00
2023-01-23T01:59:07.319Z,3.00
2023-01-23T02:01:34.819Z,3.01
2023-01-23T02:04:02.233Z,3.00
2023-01-23T02:06:28.871Z,3.00
2023-01-23T02:09:03.863Z,3.00
2023-01-23T02:11:30.777Z,2.99
2023-01-23T02:13:57.905Z,2.99
2023-01-23T02:16:31.355Z,2.96
2023-01-23T02:19:07.376Z,2.99
2023-01-23T02:21:37.082Z,3.01
2023-01-23T02:24:39.254Z,2.99
2023-01-23T02:27:05.805Z,3.01
2023-01-23T02:29:52.041Z,2.99
2023-01-23T02:32:19.699Z,3.00
2023-01-23T02:34:46.323Z,3.02
2023-01-23T02:37:14.537Z,3.04
2023-01-23T02:39:41.186Z,3.02
2023-01-23T02:42:08.025Z,3.02
2023-01-23T02:44:34.593Z,3.02
2023-01-23T02:47:05.010Z,3.02
2023-01-23T02:49:31.664Z,3.06
2023-01-23T02:51:58.279Z,3.07
2023-01-23T02:54:25.646Z,3.10
2023-01-23T02:56:52.359Z,3.10
2023-01-23T02:59:37.648Z,3.09
2023-01-23T03:02:05.575Z,3.09
2023-01-23T03:04:32.232Z,3.08
2023-01-23T03:06:59.379Z,3.11
2023-01-23T03:09:26.309Z,3.10
2023-01-23T03:11:53.009Z,3.10
2023-01-23T03:14:22.013Z,3.11
2023-01-23T03:16:53.802Z,3.13
2023-01-23T03:19:23.279Z,3.10
2023-01-23T03:21:50.335Z,3.10
2023-01-23T03:24:17.654Z,3.11
2023-01-23T03:26:46.781Z,3.09
2023-01-23T03:29:37.224Z,3.09
2023-01-23T03:32:04.922Z,3.10
2023-01-23T03:34:32.050Z,3.08
2023-01-23T03:36:59.580Z,3.10
2023-01-23T03:39:45.042Z,3.09
2023-01-23T03:42:11.599Z,3.08
2023-01-23T03:44:38.258Z,3.08
2023-01-23T03:47:05.708Z,3.11
2023-01-23T03:49:32.574Z,3.10
2023-01-23T03:51:59.562Z,3.09
2023-01-23T03:54:26.352Z,3.10
2023-01-23T03:56:53.248Z,3.09
2023-01-23T03:59:19.863Z,3.13
2023-01-23T04:01:47.808Z,3.12
2023-01-23T04:04:14.565Z,3.10
2023-01-23T04:06:41.358Z,3.08
2023-01-23T04:09:07.926Z,3.04
2023-01-23T04:11:34.516Z,3.01
2023-01-23T04:14:01.112Z,3.00
2023-01-23T04:16:28.777Z,3.00
2023-01-23T04:18:55.563Z,3.03
2023-01-23T04:21:22.295Z,3.03
2023-01-23T04:23:48.925Z,3.05
2023-01-23T04:26:15.602Z,3.07
2023-01-23T04:28:42.192Z,3.07
2023-01-23T04:31:09.638Z,3.07
2023-01-23T04:33:36.900Z,3.06
2023-01-23T04:36:06.053Z,3.07
2023-01-23T04:38:34.860Z,3.11
2023-01-23T04:41:01.499Z,3.10
2023-01-23T04:43:28.026Z,3.07
2023-01-23T04:45:55.769Z,3.07
2023-01-23T04:48:23.692Z,3.08
2023-01-23T04:50:51.034Z,3.07
2023-01-23T04:53:17.831Z,3.07
2023-01-23T04:55:47.416Z,3.09
2023-01-23T04:58:14.123Z,3.07
2023-01-23T05:00:40.791Z,3.08
2023-01-23T05:03:07.363Z,3.04
2023-01-23T05:05:34.003Z,3.04
2023-01-23T05:08:00.809Z,3.04
2023-01-23T05:10:27.411Z,3.06
2023-01-23T05:12:54.200Z,3.07
2023-01-23T05:15:21.367Z,3.06
2023-01-23T05:17:48.904Z,3.08
2023-01-23T05:20:15.820Z,3.10
2023-01-23T05:22:52.439Z,3.10
2023-01-23T05:25:24.984Z,3.11
2023-01-23T05:27:52.158Z,3.13
2023-01-23T05:30:21.894Z,3.15
2023-01-23T05:32:48.897Z,3.12
2023-01-23T05:35:15.848Z,3.12
2023-01-23T05:37:42.472Z,3.10
2023-01-23T05:40:13.369Z,3.09
2023-01-23T05:42:40.067Z,3.08
2023-01-23T05:45:07.381Z,3.06
2023-01-23T05:47:34.483Z,3.04
2023-01-23T05:50:01.295Z,3.02
2023-01-23T05:52:28.244Z,2.99
2023-01-23T05:54:54.995Z,2.99
2023-01-23T05:57:21.903Z,3.06
2023-01-23T05:59:48.590Z,3.72
2023-01-23T06:02:15.360Z,4.59
2023-01-23T06:04:42.182Z,4.99
2023-01-23T06:07:14.090Z,5.08
2023-01-23T06:09:40.746Z,5.16
2023-01-23T06:12:08.480Z,5.40
2023-01-23T06:14:35.424Z,5.22
2023-01-23T06:17:02.113Z,5.28
2023-01-23T06:19:28.813Z,5.53
2023-01-23T06:21:55.349Z,5.58
2023-01-23T06:24:22.236Z,5.29
2023-01-23T06:26:48.814Z,5.02
2023-01-23T06:29:15.415Z,4.79
2023-01-23T06:31:42.196Z,4.56
2023-01-23T06:34:08.896Z,4.33
2023-01-23T06:36:36.187Z,4.13
2023-01-23T06:39:02.977Z,4.00
2023-01-23T06:41:29.679Z,3.88
2023-01-23T06:43:56.532Z,3.81
2023-01-23T06:46:23.656Z,3.70
2023-01-23T06:48:50.330Z,3.60
2023-01-23T06:51:17.418Z,3.52
2023-01-23T06:53:44.066Z,3.51
2023-01-23T06:56:11.813Z,3.47
2023-01-23T06:58:38.842Z,3.48
2023-01-23T07:01:15.921Z,3.45
2023-01-23T07:03:44.870Z,3.46
2023-01-23T07:06:13.048Z,3.43
2023-01-23T07:08:40.526Z,3.42
2023-01-23T07:11:07.967Z,3.37
2023-01-23T07:13:35.094Z,3.36
2023-01-23T07:16:02.329Z,3.38
2023-01-23T07:18:30.410Z,3.37
2023-01-23T07:20:57.134Z,3.38
2023-01-23T07:23:23.785Z,3.39
2023-01-23T07:25:50.823Z,3.42
2023-01-23T07:28:17.410Z,3.41
2023-01-23T07:30:44.034Z,3.40
2023-01-23T07:33:12.297Z,3.39
2023-01-23T07:35:40.369Z,3.37
2023-01-23T07:38:07.389Z,3.35
2023-01-23T07:40:34.002Z,3.35
2023-01-23T07:43:00.583Z,3.36
2023-01-23T07:45:27.210Z,3.31
2023-01-23T07:47:53.745Z,3.31
2023-01-23T07:50:20.646Z,3.30
2023-01-23T07:52:47.417Z,3.29
2023-01-23T07:55:14.129Z,3.28
2023-01-23T07:57:40.761Z,3.28
2023-01-23T08:00:10.494Z,3.29
2023-01-23T08:02:38.306Z,3.28
2023-01-23T08:05:05.558Z,3.27
2023-01-23T08:07:32.229Z,3.28
2023-01-23T08:09:58.804Z,3.31
2023-01-23T08:12:25.412Z,3.30
2023-01-23T08:14:52.009Z,3.30
2023-01-23T08:17:18.634Z,3.30
2023-01-23T08:19:45.186Z,3.32
2023-01-23T08:22:11.877Z,3.35
2023-01-23T08:24:38.447Z,3.35
2023-01-23T08:27:05.270Z,3.36
2023-01-23T08:29:32.148Z,3.38
2023-01-23T08:31:59.254Z,3.40
2023-01-23T08:34:26.113Z,3.42
2023-01-23T08:36:52.662Z,3.43
2023-01-23T08:39:20.360Z,3.43
2023-01-23T08:41:46.944Z,3.44
2023-01-23T08:44:13.791Z,3.43
2023-01-23T08:46:40.546Z,3.46
2023-01-23T08:49:07.137Z,3.49
2023-01-23T08:51:33.726Z,3.50
2023-01-23T08:54:00.299Z,3.54
2023-01-23T08:56:26.995Z,3.57
2023-01-23T08:58:53.543Z,3.60
2023-01-23T09:01:23.238Z,3.64
2023-01-23T09:03:50.030Z,3.65
2023-01-23T09:06:20.040Z,3.66
2023-01-23T09:08:47.730Z,3.73
2023-01-23T09:11:15.513Z,3.74
2023-01-23T09:13:42.942Z,3.74
2023-01-23T09:16:09.888Z,3.75
2023-01-23T09:18:37.162Z,3.77
2023-01-23T09:21:08.891Z,3.80
2023-01-23T09:23:36.086Z,3.82
2023-01-23T09:26:08.039Z,3.87
2023-01-23T09:28:38.755Z,3.84
2023-01-23T09:31:10.894Z,3.90
2023-01-23T09:33:38.377Z,3.92
2023-01-23T09:36:05.875Z,3.93
2023-01-23T09:38:34.073Z,3.91
2023-01-23T09:41:07.756Z,3.90
2023-01-23T09:43:45.348Z,3.89
2023-01-23T09:46:25.992Z,3.91
2023-01-23T09:48:58.779Z,3.89
2023-01-23T09:51:41.491Z,3.90
2023-01-23T09:54:16.312Z,3.87
2023-01-23T09:56:47.400Z,3.88
2023-01-23T09:59:59.918Z,3.87
2023-01-23T10:02:27.909Z,3.88
2023-01-23T10:04:56.775Z,3.90
2023-01-23T10:07:45.220Z,3.86
2023-01-23T10:10:50.386Z,3.89
2023-01-23T10:13:19.539Z,3.92
2023-01-23T10:19:36.251Z,3.93
2023-01-23T10:22:34.445Z,3.94
2023-01-23T10:25:10.121Z,4.04
2023-01-23T10:27:43.298Z,4.19
2023-01-23T10:30:28.299Z,4.33
2023-01-23T10:32:57.907Z,4.49
2023-01-23T10:35:47.516Z,4.53
2023-01-23T10:38:27.904Z,4.59
2023-01-23T10:41:13.251Z,4.68
2023-01-23T10:43:42.645Z,4.73
2023-01-23T10:46:15.647Z,4.80
2023-01-23T10:48:53.346Z,4.84
2023-01-23T10:51:43.739Z,4.88
2023-01-23T10:54:29.920Z,4.92
2023-01-23T10:57:00.587Z,4.97
2023-01-23T10:59:32.669Z,5.02
2023-01-23T11:02:17.368Z,5.00
2023-01-23T11:04:47.041Z,4.95
2023-01-23T11:07:16.430Z,4.86
2023-01-23T11:09:47.607Z,4.81
2023-01-23T11:12:20.540Z,4.74
2023-01-23T11:14:47.711Z,4.71
2023-01-23T11:17:24.608Z,4.70
2023-01-23T11:19:54.479Z,4.70
2023-01-23T11:22:28.218Z,4.69
2023-01-23T11:24:54.888Z,4.69
2023-01-23T11:27:32.043Z,4.67
2023-01-23T11:30:31.627Z,4.61
2023-01-23T11:33:04.335Z,4.62
2023-01-23T11:35:53.581Z,4.62
2023-01-23T11:38:30.753Z,4.67
2023-01-23T11:40:57.825Z,4.67
2023-01-23T11:43:24.558Z,4.66
2023-01-23T11:46:15.692Z,4.67
2023-01-23T11:49:10.729Z,4.68
2023-01-23T11:51:57.720Z,4.62
2023-01-23T11:54:42.500Z,4.68
2023-01-23T11:57:23.898Z,4.71
2023-01-23T12:00:00.661Z,4.72
2023-01-23T12:02:39.564Z,4.69
2023-01-23T12:05:45.280Z,4.71
2023-01-23T12:08:27.313Z,4.67
2023-01-23T12:11:22.325Z,4.64
2023-01-23T12:14:03.533Z,4.61
2023-01-23T12:16:35.756Z,4.61
2023-01-23T12:19:11.400Z,4.59
2023-01-23T12:22:01.578Z,4.58
2023-01-23T12:24:59.219Z,4.56
2023-01-23T12:27:28.509Z,4.56
2023-01-23T12:29:58.177Z,4.58
2023-01-23T12:32:30.768Z,4.64
2023-01-23T12:35:29.873Z,4.62
2023-01-23T12:38:34.979Z,4.61
2023-01-23T12:41:13.587Z,4.66
2023-01-23T12:43:58.243Z,4.63
2023-01-23T12:46:57.170Z,4.56
2023-01-23T12:49:41.096Z,4.57
2023-01-23T12:52:15.985Z,4.56
2023-01-23T12:54:48.541Z,4.57
2023-01-23T12:57:46.200Z,4.55
2023-01-23T13:00:36.976Z,4.55
2023-01-23T13:03:44.875Z,4.57
2023-01-23T13:06:30.984Z,4.59
2023-01-23T13:09:55.226Z,4.61
2023-01-23T13:12:26.257Z,4.61
2023-01-23T13:15:38.840Z,4.60
2023-01-23T13:18:28.204Z,4.63
2023-01-23T13:21:18.589Z,4.64
2023-01-23T13:23:45.367Z,4.63
2023-01-23T13:26:32.375Z,4.59
2023-01-23T13:29:02.479Z,4.60
2023-01-23T13:31:50.553Z,4.59
2023-01-23T13:34:17.313Z,4.63
2023-01-23T13:36:54.264Z,4.64
2023-01-23T13:39:29.410Z,4.63
2023-01-23T13:42:22.154Z,4.61
2023-01-23T13:45:16.780Z,4.63
2023-01-23T14:22:38.240Z,4.77
2023-01-23T14:25:16.361Z,4.77
2023-01-23T14:27:52.571Z,4.79
2023-01-23T14:30:27.153Z,4.82
2023-01-23T14:32:54.119Z,4.83
2023-01-23T14:35:24.016Z,4.81
2023-01-23T14:37:53.698Z,4.77
2023-01-23T14:40:27.632Z,4.75
2023-01-23T14:42:58.348Z,4.71
2023-01-23T14:45:28.282Z,4.69
2023-01-23T14:48:05.282Z,4.64
2023-01-23T14:50:33.106Z,4.61
2023-01-23T14:53:11.868Z,4.58
2023-01-23T14:55:41.882Z,4.56
2023-01-23T14:58:19.103Z,4.54
2023-01-23T15:00:46.430Z,4.54
2023-01-23T15:03:13.269Z,4.53
2023-01-23T15:05:41.706Z,4.55
2023-01-23T15:08:27.141Z,4.51
2023-01-23T15:10:55.809Z,4.51
2023-01-23T15:13:22.318Z,4.50
2023-01-23T15:15:55.767Z,4.48
2023-01-23T15:18:28.233Z,4.51
2023-01-23T15:21:08.388Z,4.48
2023-01-23T15:23:36.643Z,4.47
2023-01-23T15:26:22.988Z,4.45
2023-01-23T15:28:56.736Z,4.48
2023-01-23T15:31:41.191Z,4.46
2023-01-23T15:34:16.715Z,4.44
2023-01-23T15:36:56.036Z,4.44
2023-01-23T15:39:30.608Z,4.42
2023-01-23T15:42:02.445Z,4.41
2023-01-23T15:44:31.560Z,4.40
2023-01-23T15:47:03.418Z,4.41
2023-01-23T15:49:35.474Z,4.37
2023-01-23T15:52:22.610Z,4.33
2023-01-23T15:54:52.856Z,4.32
2023-01-23T15:57:19.567Z,4.28
2023-01-23T15:59:46.303Z,4.23
2023-01-23T16:02:29.489Z,4.20
2023-01-23T16:04:57.055Z,4.18
2023-01-23T16:07:25.066Z,4.17
2023-01-23T16:09:52.488Z,4.12
2023-01-23T16:12:20.239Z,4.07
2023-01-23T16:14:48.197Z,4.05
2023-01-23T16:17:17.081Z,4.03
2023-01-23T16:19:44.110Z,4.02
2023-01-23T16:22:15.178Z,4.01
2023-01-23T16:24:42.311Z,4.02
2023-01-23T16:27:16.821Z,4.05
2023-01-23T16:29:44.319Z,4.05
2023-01-23T16:32:11.065Z,4.05
2023-01-23T16:34:37.744Z,4.05
2023-01-23T16:37:04.779Z,4.03
2023-01-23T16:39:33.474Z,4.00
2023-01-23T16:42:00.139Z,4.02
2023-01-23T16:44:27.024Z,3.97
2023-01-23T16:46:53.965Z,3.95
2023-01-23T16:49:21.351Z,3.93
2023-01-23T16:51:56.312Z,3.94
2023-01-23T16:54:23.134Z,3.93
2023-01-23T16:56:51.677Z,3.90
2023-01-23T16:59:25.135Z,3.88
2023-01-23T17:01:52.297Z,3.90
2023-01-23T17:04:20.943Z,3.89
2023-01-23T17:06:48.614Z,3.88
2023-01-23T17:09:16.071Z,3.90
2023-01-23T17:11:49.729Z,3.88
2023-01-23T17:14:31.397Z,3.87
2023-01-23T17:17:03.112Z,3.86
2023-01-23T17:19:32.557Z,3.86
2023-01-23T17:22:01.388Z,3.88
2023-01-23T17:24:28.564Z,3.87
2023-01-23T17:26:55.270Z,3.88
2023-01-23T17:29:22.967Z,3.85
2023-01-23T17:31:49.741Z,3.83
2023-01-23T17:34:23.106Z,3.81
2023-01-23T17:36:50.945Z,3.78
2023-01-23T17:39:17.568Z,3.74
2023-01-23T17:41:44.256Z,3.71
2023-01-23T17:44:10.883Z,3.66
2023-01-23T17:46:39.451Z,3.58
2023-01-23T17:49:28.419Z,3.46
2023-01-23T17:51:57.056Z,3.40
2023-01-23T17:54:23.706Z,3.32
2023-01-23T17:56:50.309Z,3.26
2023-01-23T17:59:16.859Z,3.22
2023-01-23T18:01:43.774Z,3.18
2023-01-23T18:04:21.243Z,3.12
2023-01-23T18:06:48.514Z,3.09
2023-01-23T18:09:15.577Z,3.06
2023-01-23T18:11:55.173Z,3.03
2023-01-23T18:14:42.092Z,2.98
2023-01-23T18:18:00.977Z,2.91
2023-01-23T18:20:28.569Z,2.90
2023-01-23T18:22:56.663Z,2.89
2023-01-23T18:25:26.195Z,2.88
2023-01-23T18:27:55.406Z,2.89
2023-01-23T18:30:37.682Z,2.82
2023-01-23T18:33:11.683Z,2.82
2023-01-23T18:36:02.553Z,2.79
2023-01-23T18:38:36.034Z,2.77
2023-01-23T18:41:21.512Z,2.73
2023-01-23T18:44:11.492Z,2.75
2023-01-23T18:46:38.312Z,2.72
2023-01-23T18:49:05.296Z,2.69
2023-01-23T18:51:42.008Z,2.64
2023-01-23T18:54:21.124Z,2.63
2023-01-23T18:56:50.770Z,2.63
2023-01-23T18:59:23.922Z,2.63
2023-01-23T19:02:22.321Z,2.60
2023-01-23T19:04:57.951Z,2.62
2023-01-23T19:07:24.706Z,2.63
2023-01-23T19:09:51.663Z,2.62
2023-01-23T19:12:25.557Z,2.60
2023-01-23T19:15:20.171Z,2.59
2023-01-23T19:18:15.937Z,2.56
2023-01-23T19:20:48.510Z,2.56
2023-01-23T19:23:26.990Z,2.57
2023-01-23T19:25:53.724Z,2.61
2023-01-23T19:28:20.497Z,2.61
2023-01-23T19:30:47.436Z,2.62
2023-01-23T19:33:18.414Z,2.65
2023-01-23T19:35:46.277Z,2.64
2023-01-23T19:38:15.136Z,2.64
2023-01-23T19:40:42.731Z,2.65
2023-01-23T19:43:16.883Z,2.66
2023-01-23T19:45:45.259Z,2.70
2023-01-23T19:48:12.357Z,2.73
2023-01-23T19:50:39.958Z,2.74
2023-01-23T19:53:06.887Z,2.78
2023-01-23T19:55:35.299Z,2.84
2023-01-23T19:58:02.266Z,2.86
2023-01-23T20:00:31.519Z,2.87
2023-01-23T20:02:58.991Z,2.87
2023-01-23T20:05:26.169Z,2.86
2023-01-23T20:07:54.184Z,2.84
2023-01-23T20:10:21.819Z,2.84
2023-01-23T20:12:52.144Z,2.83
2023-01-23T20:15:22.007Z,2.84
2023-01-23T20:17:49.495Z,2.83
2023-01-23T20:20:16.521Z,2.84
2023-01-23T20:22:44.061Z,2.84
2023-01-23T20:25:13.776Z,2.85
2023-01-23T20:27:41.656Z,2.86
2023-01-23T20:30:13.442Z,2.89
2023-01-23T20:32:40.040Z,2.92
2023-01-23T20:35:07.087Z,2.97
2023-01-23T20:37:33.749Z,3.02
2023-01-23T20:40:00.445Z,3.07
2023-01-23T20:42:27.090Z,3.11
2023-01-23T20:44:53.677Z,3.16
2023-01-23T20:47:20.375Z,3.20
2023-01-23T20:49:46.960Z,3.24
2023-01-23T20:52:32.457Z,3.26
2023-01-23T20:54:59.037Z,3.28
2023-01-23T20:57:45.725Z,3.30
2023-01-23T21:00:13.032Z,3.30
2023-01-23T21:02:39.759Z,3.33
2023-01-23T21:05:07.305Z,3.35
2023-01-23T21:07:33.886Z,3.36
2023-01-23T21:10:00.459Z,3.39
2023-01-23T21:12:27.062Z,3.38
2023-01-23T21:14:54.026Z,3.38
2023-01-23T21:17:20.603Z,3.40
2023-01-23T21:19:47.933Z,3.43
2023-01-23T21:22:14.638Z,3.42
2023-01-23T21:24:41.276Z,3.41
2023-01-23T21:27:07.929Z,3.42
2023-01-23T21:29:34.700Z,3.45
2023-01-23T21:32:01.484Z,3.44
2023-01-23T21:34:28.417Z,3.43
2023-01-23T21:36:55.058Z,3.44
2023-01-23T21:39:21.711Z,3.46
2023-01-23T21:41:48.337Z,3.46
2023-01-23T21:44:14.975Z,3.45
2023-01-23T21:46:41.712Z,3.45
2023-01-23T21:49:08.639Z,3.46
2023-01-23T21:51:35.252Z,3.45
2023-01-23T21:54:01.864Z,3.47
2023-01-23T21:56:28.556Z,3.50
2023-01-23T21:58:55.467Z,3.51
2023-01-23T22:01:33.836Z,3.55
2023-01-23T22:04:05.150Z,3.53
2023-01-23T22:06:32.717Z,3.52
2023-01-23T22:08:59.440Z,3.52
2023-01-23T22:11:26.154Z,3.54
2023-01-23T22:13:53.208Z,3.53
2023-01-23T22:16:22.701Z,3.54
2023-01-23T22:18:52.092Z,3.53
2023-01-23T22:21:18.797Z,3.55
2023-01-23T22:23:45.440Z,3.53
2023-01-23T22:26:12.465Z,3.52
2023-01-23T22:28:39.136Z,3.54
2023-01-23T22:31:09.978Z,3.55
2023-01-23T22:33:41.566Z,3.52
2023-01-23T22:36:12.261Z,3.51
2023-01-23T22:38:38.991Z,3.52
2023-01-23T22:41:06.472Z,3.54
2023-01-23T22:43:34.327Z,3.50
2023-01-23T22:46:08.663Z,3.47
2023-01-23T22:48:36.223Z,3.48
2023-01-23T22:51:04.882Z,3.50
2023-01-23T22:53:32.179Z,3.53
2023-01-23T22:55:59.218Z,3.53
2023-01-23T22:58:26.024Z,3.52
2023-01-23T23:00:53.601Z,3.53
2023-01-23T23:03:21.347Z,3.50
2023-01-23T23:05:57.058Z,3.47
2023-01-23T23:08:24.021Z,3.50
2023-01-23T23:11:01.909Z,3.48
2023-01-23T23:13:33.776Z,3.48
2023-01-23T23:16:04.973Z,3.47
2023-01-23T23:18:31.813Z,3.50
2023-01-23T23:21:02.523Z,3.51
2023-01-23T23:23:29.499Z,3.52
2023-01-23T23:25:56.634Z,3.51
2023-01-23T23:28:24.944Z,3.52
2023-01-23T23:30:52.423Z,3.51
2023-01-23T23:33:19.871Z,3.53
2023-01-23T23:35:46.893Z,3.54
2023-01-23T23:38:14.584Z,3.55
2023-01-23T23:40:42.025Z,3.56
2023-01-23T23:43:09.353Z,3.56
2023-01-23T23:45:36.319Z,3.58
2023-01-23T23:48:02.954Z,3.57
2023-01-23T23:50:30.161Z,3.57
2023-01-23T23:52:56.818Z,3.56
2023-01-23T23:55:23.638Z,3.56
2023-01-23T23:57:50.317Z,3.56
